createdAt,value
2022-10-17T00:01:14.951Z,16.90
2022-10-17T00:03:43.271Z,16.90
2022-10-17T00:06:14.334Z,16.90
2022-10-17T00:08:41.706Z,17.00
2022-10-17T00:11:16.113Z,16.90
2022-10-17T00:13:43.273Z,17.00
2022-10-17T00:16:10.408Z,17.00
2022-10-17T00:18:43.689Z,16.90
2022-10-17T00:22:16.496Z,17.00
2022-10-17T00:25:06.484Z,17.00
2022-10-17T00:27:39.347Z,17.00
2022-10-17T00:30:14.598Z,17.00
2022-10-17T00:32:41.839Z,17.00
2022-10-17T00:35:09.196Z,17.10
2022-10-17T00:37:38.434Z,17.00
2022-10-17T00:43:29.871Z,17.10
2022-10-17T00:45:57.213Z,17.00
2022-10-17T00:48:42.501Z,16.90
2022-10-17T00:51:09.597Z,16.90
2022-10-17T00:53:38.710Z,16.90
2022-10-17T00:56:06.156Z,16.90
2022-10-17T00:58:33.316Z,16.90
2022-10-17T01:01:03.083Z,16.90
2022-10-17T01:03:30.150Z,16.90
2022-10-17T01:05:57.421Z,16.80
2022-10-17T01:08:24.525Z,16.80
2022-10-17T01:11:09.639Z,16.80
2022-10-17T01:13:41.633Z,16.70
2022-10-17T01:16:18.877Z,16.70
2022-10-17T01:18:56.087Z,16.70
2022-10-17T01:21:34.785Z,16.70
2022-10-17T01:24:29.086Z,16.60
2022-10-17T01:27:14.602Z,16.60
2022-10-17T01:30:10.393Z,16.60
2022-10-17T01:33:39.911Z,16.60
2022-10-17T01:36:20.158Z,16.50
2022-10-17T01:38:53.019Z,16.50
2022-10-17T01:41:43.574Z,16.50
2022-10-17T01:44:12.523Z,16.50
2022-10-17T01:47:16.937Z,16.40
2022-10-17T01:49:51.087Z,16.40
2022-10-17T01:52:29.257Z,16.40
2022-10-17T01:55:19.068Z,16.40
2022-10-17T01:58:57.251Z,16.30
2022-10-17T02:01:24.634Z,16.40
2022-10-17T02:03:52.207Z,16.30
2022-10-17T02:06:19.202Z,16.30
2022-10-17T02:08:48.329Z,16.30
2022-10-17T02:14:33.018Z,16.30
2022-10-17T02:17:18.518Z,16.30
2022-10-17T02:20:06.667Z,16.30
2022-10-17T02:22:39.655Z,16.30
2022-10-17T02:25:39.319Z,16.30
2022-10-17T02:28:24.654Z,16.30
2022-10-17T02:30:58.373Z,16.30
2022-10-17T02:33:35.882Z,16.30
2022-10-17T02:36:05.992Z,16.30
2022-10-17T02:38:33.071Z,16.30
2022-10-17T02:41:02.587Z,16.30
2022-10-17T02:43:29.581Z,16.30
2022-10-17T02:45:56.678Z,16.30
2022-10-17T02:48:49.703Z,16.30
2022-10-17T02:51:25.915Z,16.30
2022-10-17T02:54:00.579Z,16.30
2022-10-17T02:56:27.557Z,16.30
2022-10-17T02:58:56.327Z,16.30
2022-10-17T03:01:26.580Z,16.30
2022-10-17T03:04:11.329Z,16.30
2022-10-17T03:06:38.752Z,16.30
2022-10-17T03:09:05.906Z,16.30
2022-10-17T03:11:32.897Z,16.30
2022-10-17T03:14:02.970Z,16.30
2022-10-17T03:16:33.093Z,16.30
2022-10-17T03:19:00.030Z,16.30
2022-10-17T03:21:27.096Z,16.30
2022-10-17T03:23:55.282Z,16.30
2022-10-17T03:26:22.325Z,16.30
2022-10-17T03:28:51.955Z,16.30
2022-10-17T03:31:21.425Z,16.30
2022-10-17T03:33:48.357Z,16.30
2022-10-17T03:36:16.852Z,16.30
2022-10-17T03:38:44.356Z,16.30
2022-10-17T03:41:11.491Z,16.30
2022-10-17T03:43:38.694Z,16.30
2022-10-17T03:46:06.240Z,16.30
2022-10-17T03:48:33.526Z,16.30
2022-10-17T03:51:04.655Z,16.20
2022-10-17T03:53:31.626Z,16.30
2022-10-17T03:56:08.671Z,16.30
2022-10-17T03:58:35.686Z,16.30
2022-10-17T04:01:06.847Z,16.30
2022-10-17T04:03:34.170Z,16.30
2022-10-17T04:06:01.920Z,16.30
2022-10-17T04:08:29.170Z,16.30
2022-10-17T04:11:34.788Z,16.30
2022-10-17T04:14:01.766Z,16.30
2022-10-17T04:16:30.881Z,16.40
2022-10-17T04:19:17.886Z,16.40
2022-10-17T04:22:24.726Z,16.40
2022-10-17T04:24:51.676Z,16.40
2022-10-17T04:27:18.659Z,16.40
2022-10-17T04:29:45.890Z,16.40
2022-10-17T04:32:12.864Z,16.40
2022-10-17T04:34:39.905Z,16.40
2022-10-17T04:37:06.913Z,16.40
2022-10-17T04:39:33.864Z,16.40
2022-10-17T04:42:00.859Z,16.40
2022-10-17T04:44:31.028Z,16.40
2022-10-17T04:46:59.081Z,16.40
2022-10-17T04:49:26.125Z,16.40
2022-10-17T04:51:53.203Z,16.40
2022-10-17T04:54:20.258Z,16.40
2022-10-17T04:56:47.496Z,16.40
2022-10-17T04:59:14.672Z,16.40
2022-10-17T05:01:41.803Z,16.40
2022-10-17T05:04:08.818Z,16.40
2022-10-17T05:06:37.931Z,16.40
2022-10-17T05:09:04.996Z,16.40
2022-10-17T05:11:32.029Z,16.40
2022-10-17T05:14:00.719Z,16.40
2022-10-17T05:16:28.058Z,16.40
2022-10-17T05:18:56.578Z,16.40
2022-10-17T05:21:25.002Z,16.40
2022-10-17T05:23:52.209Z,16.40
2022-10-17T05:26:19.552Z,16.40
2022-10-17T05:28:54.435Z,16.40
2022-10-17T05:31:21.605Z,16.40
2022-10-17T05:33:48.633Z,16.40
2022-10-17T05:36:18.817Z,16.40
2022-10-17T05:38:50.070Z,16.40
2022-10-17T05:41:19.813Z,16.40
2022-10-17T05:43:50.449Z,16.40
2022-10-17T05:46:17.723Z,16.40
2022-10-17T05:48:44.848Z,16.40
2022-10-17T05:51:12.974Z,16.40
2022-10-17T05:53:40.660Z,16.40
2022-10-17T05:56:09.479Z,16.40
2022-10-17T05:58:49.638Z,16.40
2022-10-17T06:01:21.699Z,16.40
2022-10-17T06:03:48.952Z,16.40
2022-10-17T06:06:16.243Z,16.40
2022-10-17T06:08:43.507Z,16.40
2022-10-17T06:11:10.982Z,16.40
2022-10-17T06:13:38.878Z,16.40
2022-10-17T06:16:06.578Z,16.40
2022-10-17T06:18:45.475Z,16.30
2022-10-17T06:24:31.486Z,16.30
2022-10-17T06:33:06.439Z,16.20
2022-10-17T06:35:37.602Z,16.20
2022-10-17T06:41:47.104Z,16.20
2022-10-17T06:51:17.906Z,16.10
2022-10-17T06:57:32.639Z,16.10
2022-10-17T07:00:08.069Z,16.10
2022-10-17T07:11:23.008Z,16.00
2022-10-17T07:14:36.460Z,16.00
2022-10-17T07:21:05.165Z,16.10
2022-10-17T07:23:56.555Z,16.00
2022-10-17T07:30:03.576Z,16.00
2022-10-17T07:40:30.280Z,16.00
2022-10-17T07:42:57.337Z,16.00
2022-10-17T07:45:24.707Z,16.00
2022-10-17T07:48:11.830Z,16.10
2022-10-17T07:51:44.032Z,16.10
2022-10-17T07:54:38.046Z,16.10
2022-10-17T07:57:12.456Z,16.10
2022-10-17T08:06:09.066Z,16.20
2022-10-17T08:08:57.987Z,16.20
2022-10-17T08:11:39.868Z,16.30
2022-10-17T08:17:29.988Z,16.30
2022-10-17T08:19:57.129Z,16.40
2022-10-17T08:22:30.767Z,16.40
2022-10-17T08:25:01.012Z,16.40
2022-10-17T08:27:40.183Z,16.40
2022-10-17T08:37:39.237Z,16.50
2022-10-17T08:40:28.186Z,16.50
2022-10-17T08:46:47.767Z,16.70
2022-10-17T08:53:03.261Z,16.80
2022-10-17T09:15:21.733Z,17.10
2022-10-17T09:35:19.453Z,17.30
2022-10-17T10:27:46.867Z,17.30
2022-10-17T10:31:12.791Z,17.30
2022-10-17T10:38:22.888Z,17.40
2022-10-17T10:44:45.729Z,17.50
2022-10-17T11:02:53.478Z,17.70
2022-10-17T11:05:47.830Z,17.80
2022-10-17T11:19:46.499Z,17.80
2022-10-17T11:26:01.542Z,17.90
2022-10-17T11:28:49.342Z,18.00
2022-10-17T11:34:25.487Z,18.10
2022-10-17T11:37:00.194Z,18.10
2022-10-17T11:43:02.850Z,18.20
2022-10-17T11:45:44.250Z,18.30
2022-10-17T11:48:22.869Z,18.40
2022-10-17T11:54:17.154Z,18.40
2022-10-17T11:56:50.195Z,18.40
2022-10-17T12:02:31.804Z,18.40
2022-10-17T12:05:54.041Z,18.40
2022-10-17T12:12:55.275Z,18.40
2022-10-17T12:15:46.629Z,18.30
2022-10-17T12:18:41.680Z,18.30
2022-10-17T12:21:22.936Z,18.30
2022-10-17T12:24:16.747Z,18.30
2022-10-17T12:26:55.173Z,18.30
2022-10-17T12:29:48.524Z,18.30
2022-10-17T12:36:28.496Z,18.40
2022-10-17T12:39:58.810Z,18.40
2022-10-17T12:46:55.775Z,18.40
2022-10-17T12:50:38.014Z,18.50
2022-10-17T12:56:07.318Z,18.50
2022-10-17T12:58:37.501Z,18.50
2022-10-17T13:01:23.086Z,18.40
2022-10-17T13:07:21.101Z,18.50
2022-10-17T13:13:25.720Z,18.50
2022-10-17T13:25:48.358Z,18.30
2022-10-17T13:28:15.761Z,18.30
2022-10-17T13:30:49.888Z,18.30
2022-10-17T13:33:27.936Z,18.30
2022-10-17T13:36:03.361Z,18.30
2022-10-17T13:43:08.038Z,18.30
2022-10-17T13:52:40.160Z,18.20
2022-10-17T13:55:30.466Z,18.20
2022-10-17T13:58:09.138Z,18.30
2022-10-17T14:00:36.398Z,18.30
2022-10-17T14:04:07.215Z,18.40
2022-10-17T14:06:26.796Z,18.40
2022-10-17T14:09:23.647Z,18.40
2022-10-17T14:12:19.528Z,18.40
2022-10-17T14:15:09.777Z,18.30
2022-10-17T14:17:38.916Z,18.30
2022-10-17T14:20:34.501Z,18.20
2022-10-17T14:23:21.014Z,18.20
2022-10-17T14:25:44.116Z,18.20
2022-10-17T14:28:11.895Z,18.10
2022-10-17T14:30:57.460Z,18.10
2022-10-17T14:33:30.062Z,18.10
2022-10-17T14:36:04.922Z,18.10
2022-10-17T14:45:12.843Z,18.30
2022-10-17T14:47:43.560Z,18.30
2022-10-17T14:54:26.109Z,18.40
2022-10-17T14:57:50.544Z,18.40
2022-10-17T15:01:17.734Z,18.40
2022-10-17T15:03:45.153Z,18.40
2022-10-17T15:06:54.258Z,18.40
2022-10-17T15:09:22.621Z,18.40
2022-10-17T15:11:49.989Z,18.40
2022-10-17T15:14:17.031Z,18.40
2022-10-17T15:16:44.299Z,18.40
2022-10-17T15:19:12.687Z,18.40
2022-10-17T15:22:18.558Z,18.40
2022-10-17T15:25:46.157Z,18.40
2022-10-17T15:28:16.088Z,18.40
2022-10-17T15:30:43.347Z,18.30
2022-10-17T15:33:10.414Z,18.30
2022-10-17T15:35:37.598Z,18.30
2022-10-17T15:38:06.862Z,18.30
2022-10-17T15:40:33.821Z,18.30
2022-10-17T15:43:00.992Z,18.30
2022-10-17T15:45:34.213Z,18.30
2022-10-17T15:48:05.736Z,18.30
2022-10-17T15:50:32.619Z,18.40
2022-10-17T15:53:00.005Z,18.40
2022-10-17T15:55:27.049Z,18.40
2022-10-17T15:57:54.181Z,18.40
2022-10-17T16:00:23.372Z,18.40
2022-10-17T16:02:53.421Z,18.40
2022-10-17T16:05:36.315Z,18.30
2022-10-17T16:08:06.178Z,18.30
2022-10-17T16:10:58.571Z,18.30
2022-10-17T16:15:02.402Z,18.20
2022-10-17T16:18:23.885Z,18.10
2022-10-17T16:25:23.637Z,17.90
2022-10-17T16:27:55.044Z,17.70
2022-10-17T16:30:26.773Z,17.70
2022-10-17T16:32:57.417Z,17.60
2022-10-17T16:38:44.376Z,17.40
2022-10-17T16:42:00.030Z,17.30
2022-10-17T16:44:27.289Z,17.30
2022-10-17T17:34:27.739Z,16.10
2022-10-17T17:55:36.593Z,15.70
2022-10-17T17:58:17.302Z,15.60
2022-10-17T18:00:49.563Z,15.60
2022-10-17T18:03:19.481Z,15.60
2022-10-17T18:05:49.462Z,15.50
2022-10-17T18:14:41.828Z,15.40
2022-10-17T18:20:08.245Z,15.40
2022-10-17T18:27:10.106Z,15.40
2022-10-17T18:29:48.887Z,15.40
2022-10-17T18:32:30.513Z,15.40
2022-10-17T18:39:17.317Z,15.40
2022-10-17T18:41:44.669Z,15.30
2022-10-17T19:05:34.250Z,15.10
2022-10-17T19:09:04.500Z,15.00
2022-10-17T19:56:29.744Z,14.40
2022-10-17T20:03:35.256Z,14.30
2022-10-17T20:24:48.753Z,14.10
2022-10-17T20:39:38.691Z,14.10
2022-10-17T20:42:28.521Z,14.10
2022-10-17T20:48:40.396Z,14.00
2022-10-17T20:51:59.264Z,14.00
2022-10-17T20:54:34.872Z,13.90
2022-10-17T20:57:15.517Z,13.90
2022-10-17T21:00:05.205Z,13.80
2022-10-17T21:02:35.272Z,13.80
2022-10-17T21:05:20.314Z,13.70
2022-10-17T21:08:09.087Z,13.70
2022-10-17T21:10:41.572Z,13.60
2022-10-17T21:13:08.666Z,13.60
2022-10-17T21:15:58.457Z,13.60
2022-10-17T21:22:00.147Z,13.50
2022-10-17T21:24:33.701Z,13.50
2022-10-17T21:27:21.724Z,13.40
2022-10-17T21:29:49.771Z,13.40
2022-10-17T21:32:31.989Z,13.30
2022-10-17T21:35:11.850Z,13.30
2022-10-17T21:37:45.085Z,13.20
2022-10-17T21:43:17.488Z,13.20
2022-10-17T21:45:46.841Z,13.10
2022-10-17T21:54:45.181Z,13.00
2022-10-17T22:05:13.290Z,12.80
2022-10-17T22:37:12.415Z,12.30
2022-10-17T22:43:33.296Z,12.20
2022-10-17T22:50:19.461Z,12.20
2022-10-17T22:57:05.574Z,12.00
2022-10-17T23:10:25.533Z,11.90
2022-10-17T23:17:47.366Z,11.70
2022-10-17T23:20:43.032Z,11.70
2022-10-17T23:23:26.297Z,11.70
2022-10-17T23:26:52.268Z,11.60
2022-10-17T23:30:13.194Z,11.60
2022-10-17T23:33:13.865Z,11.60
2022-10-17T23:35:41.086Z,11.50
2022-10-17T23:38:15.497Z,11.50
2022-10-17T23:40:42.447Z,11.50
2022-10-17T23:50:04.506Z,11.40
2022-10-17T23:56:33.842Z,11.40
